Peekskill, New York
Current Conditions -  °F | °C
As of 12:45 AM on Sunday 26 Oct 2014 (Local Time) from KSWF Reporting Station
Scattered Clouds Scattered Clouds  
Wind Chill: 10°   Ceiling: Unl
Heat Index: 10°   Visibility: 10mi
Dew Point: 10°   Wind: 7mph
Humidity: 100%   Direction: 300°WNW
Pressure: 29.57"   Gusts: NA
Location:  41.29°N, 73.92°W
Report Text: KSWF 260445Z 30006KT 10SM SCT100 10/10 A2957
Loading
Personal Weather Stations






























Interactive Weather Map
Tropical Storm Tracking
New forecast layout! Learn more

10-Day Weather Forecast

Advertisements
Track Severe Weather on mobile